Time;durP1;ratioP1;P1;durP2;ratioP2;P2;SDS_P1;SDS_P2;PMS_P1;PMS_P2;Temp;Humidity;BMP_temperature;BMP_pressure;BME280_temperature;BME280_humidity;BME280_pressure;Samples;Min_cycle;Max_cycle;Signal;HPM_P1;HPM_P2
2021/05/18 00:02:01;;;;;;;6.10;1.70;;;;;;;10.41;100.00;94066.34;10450257;28;20286;-80
2021/05/18 00:07:02;;;;;;;2.03;1.83;;;;;;;10.40;100.00;94058.59;10446016;28;20024;-79
2021/05/18 00:12:03;;;;;;;2.33;1.63;;;;;;;10.53;100.00;94054.38;10448013;28;20032;-79
2021/05/18 00:17:04;;;;;;;3.83;1.75;;;;;;;10.57;100.00;94058.88;10447687;28;20033;-80
2021/05/18 00:22:04;;;;;;;2.42;2.03;;;;;;;10.41;100.00;94082.47;10449114;28;20029;-80
2021/05/18 00:27:05;;;;;;;4.90;1.97;;;;;;;10.46;100.00;94086.97;10450588;28;20420;-80
2021/05/18 00:32:05;;;;;;;6.57;2.47;;;;;;;10.30;100.00;94091.72;10450172;28;20290;-80
2021/05/18 00:37:06;;;;;;;2.78;1.60;;;;;;;10.08;100.00;94095.69;10448989;28;20029;-80
2021/05/18 00:42:17;;;;;;;2.43;1.90;;;;;;;10.01;100.00;94099.84;10449264;28;20032;-80
2021/05/18 00:47:17;;;;;;;3.35;2.20;;;;;;;10.17;100.00;94114.69;10449256;28;20037;-80
2021/05/18 00:52:19;;;;;;;3.42;2.10;;;;;;;10.43;100.00;94130.53;10448436;28;20033;-81
2021/05/18 01:02:38;;;;;;;;;;;;;;;10.27;100.00;94159.44;10450857;28;20033;-81
2021/05/18 01:07:38;;;;;;;8.87;2.93;;;;;;;9.87;100.00;94150.69;10451567;28;19912;-81
2021/05/18 01:12:39;;;;;;;5.50;3.10;;;;;;;9.81;100.00;94098.97;10451789;28;20028;-81
2021/05/18 01:17:39;;;;;;;12.48;3.50;;;;;;;9.82;100.00;94122.00;10450920;28;20298;-80
2021/05/18 01:22:45;;;;;;;9.43;4.00;;;;;;;10.07;100.00;94129.03;10447360;28;20086;-79
2021/05/18 01:27:46;;;;;;;5.85;3.40;;;;;;;10.13;100.00;94137.00;10447129;28;20049;-80
2021/05/18 01:32:47;;;;;;;6.60;3.45;;;;;;;10.22;100.00;94136.09;10446261;28;20626;-80
2021/05/18 01:37:49;;;;;;;7.95;3.65;;;;;;;10.20;100.00;94134.78;10447088;28;20024;-80
2021/05/18 01:42:55;;;;;;;6.70;4.15;;;;;;;10.09;100.00;94129.53;10446511;28;20096;-80
2021/05/18 01:47:59;;;;;;;4.18;3.70;;;;;;;10.01;100.00;94132.84;10443867;28;20111;-80
2021/05/18 01:53:00;;;;;;;4.47;3.58;;;;;;;9.91;100.00;94132.94;10445634;28;20543;-79
2021/05/18 01:58:01;;;;;;;7.32;4.22;;;;;;;9.82;100.00;94148.06;10446245;28;20032;-80
2021/05/18 02:03:01;;;;;;;6.82;3.80;;;;;;;9.79;100.00;94145.94;10446877;28;20032;-80
2021/05/18 02:08:05;;;;;;;6.80;5.05;;;;;;;9.80;100.00;94151.03;10446456;28;20028;-80
2021/05/18 02:13:05;;;;;;;9.52;5.22;;;;;;;9.84;100.00;94162.00;10448447;28;20060;-80
2021/05/18 02:18:22;;;;;;;7.15;4.63;;;;;;;9.77;100.00;94177.59;10454438;28;20462;-80
2021/05/18 02:28:42;;;;;;;12.30;5.88;;;;;;;9.74;100.00;94208.50;10455309;28;20763;-81
2021/05/18 02:33:48;;;;;;;4.22;3.63;;;;;;;9.78;100.00;94224.84;10455185;28;20017;-81
2021/05/18 02:38:48;;;;;;;5.13;3.90;;;;;;;9.92;100.00;94236.53;10450638;28;20033;-80
2021/05/18 02:44:03;;;;;;;6.53;5.05;;;;;;;9.98;100.00;94232.72;10452904;28;20029;-79
2021/05/18 02:49:14;;;;;;;10.10;5.22;;;;;;;9.83;100.00;94236.34;10453098;28;20017;-80
2021/05/18 02:54:19;;;;;;;9.80;6.20;;;;;;;9.99;100.00;94245.09;10453822;28;20029;-79
2021/05/18 02:59:20;;;;;;;6.85;5.05;;;;;;;9.95;100.00;94238.66;10452963;28;20032;-79
2021/05/18 03:04:21;;;;;;;8.05;6.10;;;;;;;9.94;100.00;94245.13;10453030;28;20043;-79
2021/05/18 03:09:23;;;;;;;13.20;7.60;;;;;;;9.93;100.00;94232.75;10452803;28;20033;-80
2021/05/18 03:14:23;;;;;;;10.20;8.18;;;;;;;9.65;100.00;94229.75;10452855;28;20055;-80
2021/05/18 03:19:24;;;;;;;14.13;9.55;;;;;;;9.62;100.00;94233.00;10452682;28;20465;-79
2021/05/18 03:24:24;;;;;;;18.27;10.17;;;;;;;9.80;100.00;94220.81;10451266;28;20123;-80
2021/05/18 03:29:33;;;;;;;14.68;10.68;;;;;;;9.93;100.00;94227.41;10451161;28;20025;-79
2021/05/18 03:34:35;;;;;;;15.18;9.80;;;;;;;10.08;100.00;94224.56;10450339;28;20656;-79
2021/05/18 03:39:37;;;;;;;14.65;9.75;;;;;;;10.12;100.00;94229.38;10449076;28;20025;-79
2021/05/18 04:21:27;;;;;;;11.43;8.32;;;;;;;10.17;100.00;94246.28;10451901;28;20052;-81
2021/05/18 04:52:49;;;;;;;3.80;3.08;;;;;;;12.10;100.00;94255.22;10446012;28;20028;-77
2021/05/18 05:08:41;;;;;;;;;;;;;;;13.27;100.00;94277.63;10446576;28;20021;-79
2021/05/18 05:14:41;;;;;;;2.20;2.00;;;;;;;13.03;100.00;94281.31;10449846;28;19959;-79
2021/05/18 05:19:11;;;;;;;3.03;2.63;;;;;;;13.46;100.00;94270.22;10440890;28;20092;-80
2021/05/18 05:24:12;;;;;;;3.63;2.20;;;;;;;14.27;100.00;94281.41;10447465;28;20091;-81
2021/05/18 05:29:12;;;;;;;2.45;1.70;;;;;;;14.59;100.00;94283.03;10449194;28;20511;-82
2021/05/18 05:34:13;;;;;;;3.28;2.05;;;;;;;15.04;100.00;94291.09;10449391;28;20037;-82
2021/05/18 05:44:20;;;;;;;3.13;1.38;;;;;;;15.34;100.00;94295.97;10450497;28;20486;-82
2021/05/18 05:49:20;;;;;;;2.83;1.58;;;;;;;15.74;100.00;94301.34;10454375;28;20032;-82
2021/05/18 05:54:22;;;;;;;2.90;1.10;;;;;;;16.42;100.00;94300.88;10457231;28;20033;-82
2021/05/18 05:59:22;;;;;;;6.45;1.00;;;;;;;16.89;100.00;94295.56;10458028;28;20464;-83
2021/05/18 06:04:22;;;;;;;0.93;0.83;;;;;;;17.59;100.00;94300.69;10455005;28;20033;-82
2021/05/18 06:09:23;;;;;;;6.27;1.17;;;;;;;17.47;100.00;94294.38;10456127;28;20081;-82
2021/05/18 06:46:12;;;;;;;6.68;1.30;;;;;;;20.71;69.12;94299.00;10451148;28;20033;-83
2021/05/18 06:51:13;;;;;;;3.55;0.43;;;;;;;21.81;59.39;94308.47;10450288;28;20147;-81
2021/05/18 06:56:13;;;;;;;2.10;0.60;;;;;;;20.97;54.70;94318.47;10450625;28;20025;-82
2021/05/18 07:01:14;;;;;;;3.58;0.70;;;;;;;21.68;54.55;94321.44;10449983;28;20736;-81
2021/05/18 07:11:21;;;;;;;3.97;0.93;;;;;;;21.90;49.44;94319.19;10453467;28;20021;-82
2021/05/18 07:16:22;;;;;;;1.13;0.75;;;;;;;23.08;48.12;94319.28;10454913;28;20384;-83
2021/05/18 07:21:22;;;;;;;0.80;0.52;;;;;;;21.71;45.98;94313.66;10454122;28;20431;-83
2021/05/18 07:26:23;;;;;;;0.60;0.38;;;;;;;22.42;45.69;94327.41;10454353;28;20040;-82
2021/05/18 07:31:24;;;;;;;8.95;0.70;;;;;;;22.20;45.83;94321.41;10453917;28;20048;-83
2021/05/18 07:36:24;;;;;;;3.83;1.00;;;;;;;21.41;47.82;94323.09;10453319;28;20028;-82
2021/05/18 07:41:24;;;;;;;6.43;1.05;;;;;;;23.61;42.62;94324.97;10453931;28;20025;-84
2021/05/18 07:46:25;;;;;;;3.10;0.80;;;;;;;24.93;42.16;94326.44;10453441;28;20480;-84
2021/05/18 08:07:10;;;;;;;8.95;0.55;;;;;;;21.36;46.51;94360.84;10453232;28;20021;-83
2021/05/18 08:12:10;;;;;;;1.80;1.00;;;;;;;20.04;57.16;94365.69;10452909;28;20033;-83
2021/05/18 10:36:15;;;;;;;5.38;0.70;;;;;;;22.99;42.69;94331.28;10449557;28;20025;-76
2021/05/18 10:41:18;;;;;;;1.80;0.43;;;;;;;24.33;41.81;94337.03;10453559;28;20060;-73
2021/05/18 10:46:27;;;;;;;0.90;0.20;;;;;;;27.61;34.98;94322.28;10453151;28;20048;-73
2021/05/18 10:51:39;;;;;;;1.17;0.30;;;;;;;27.50;34.99;94335.28;10452019;28;20037;-74
2021/05/18 10:56:59;;;;;;;7.20;1.42;;;;;;;27.91;32.50;94332.16;10452833;28;20029;-74
2021/05/18 11:02:25;;;;;;;2.53;0.45;;;;;;;24.01;36.34;94331.88;10453285;28;20028;-73
2021/05/18 11:07:36;;;;;;;2.53;0.90;;;;;;;22.22;42.80;94338.28;10452524;28;20032;-74
2021/05/18 11:12:38;;;;;;;4.22;0.52;;;;;;;21.51;44.37;94347.16;10452590;28;20517;-73
2021/05/18 11:17:51;;;;;;;4.07;0.70;;;;;;;20.24;50.28;94350.31;10452088;28;20036;-73
2021/05/18 11:28:24;;;;;;;4.70;1.00;;;;;;;19.69;51.98;94349.78;10452770;28;20806;-73
2021/05/18 11:33:34;;;;;;;6.25;0.60;;;;;;;19.31;47.88;94345.41;10452038;28;20025;-74
2021/05/18 11:39:02;;;;;;;1.20;0.73;;;;;;;19.50;48.38;94344.88;10451599;28;20082;-74
2021/05/18 11:44:04;;;;;;;2.23;0.40;;;;;;;19.32;45.60;94351.66;10449702;28;20069;-74
2021/05/18 11:49:08;;;;;;;1.38;0.50;;;;;;;19.56;49.08;94340.78;10450803;28;20055;-74
2021/05/18 11:54:08;;;;;;;1.67;0.73;;;;;;;19.63;50.89;94332.84;10451308;28;20048;-74
2021/05/18 11:59:14;;;;;;;3.00;1.10;;;;;;;19.78;49.86;94336.81;10449856;28;20024;-74
2021/05/18 12:04:17;;;;;;;3.20;0.80;;;;;;;19.56;48.74;94327.16;10451201;28;20650;-74
2021/05/18 12:09:18;;;;;;;8.57;0.75;;;;;;;19.59;46.58;94325.69;10449551;28;20057;-74
2021/05/18 12:14:18;;;;;;;2.17;0.30;;;;;;;19.76;47.57;94330.13;10450422;28;20068;-74
2021/05/18 12:19:20;;;;;;;1.25;0.98;;;;;;;19.67;44.79;94318.53;10450052;28;20503;-74
2021/05/18 12:24:27;;;;;;;2.17;0.82;;;;;;;19.44;47.08;94314.31;10450015;28;20057;-74
2021/05/18 12:29:30;;;;;;;4.27;0.30;;;;;;;18.84;44.19;94315.75;10449865;28;20063;-74
2021/05/18 12:34:31;;;;;;;4.07;0.20;;;;;;;19.13;42.57;94306.66;10449634;28;20025;-74
2021/05/18 12:39:33;;;;;;;2.30;0.37;;;;;;;19.21;42.43;94303.06;10448466;28;20024;-82
2021/05/18 12:44:50;;;;;;;0.40;0.30;;;;;;;19.37;44.31;94316.81;10450645;28;20021;-81
2021/05/18 12:49:50;;;;;;;1.00;0.40;;;;;;;19.66;43.31;94320.47;10451350;28;20087;-82
2021/05/18 12:54:56;;;;;;;2.83;0.88;;;;;;;19.83;44.63;94315.94;10450671;28;20771;-81
2021/05/18 13:00:15;;;;;;;2.10;0.30;;;;;;;19.21;42.35;94308.50;10449789;28;20031;-81
2021/05/18 13:05:30;;;;;;;0.25;0.22;;;;;;;18.05;44.88;94324.59;10449886;28;20021;-82
2021/05/18 13:10:52;;;;;;;0.30;0.20;;;;;;;18.42;43.88;94311.22;10452018;28;20357;-82
2021/05/18 13:16:11;;;;;;;1.25;0.28;;;;;;;18.24;48.22;94321.44;10448546;28;20029;-82
2021/05/18 13:21:19;;;;;;;5.03;1.60;;;;;;;18.40;46.90;94314.25;10449453;28;20372;-82
2021/05/18 13:26:30;;;;;;;;;;;;;;;18.68;47.19;94312.88;10450025;28;20041;-82
2021/05/18 13:31:33;;;;;;;2.08;0.57;;;;;;;18.48;46.71;94320.75;10449320;28;20292;-81
2021/05/18 13:36:37;;;;;;;3.95;0.65;;;;;;;18.26;46.91;94309.06;10447231;28;20037;-82
2021/05/18 13:41:38;;;;;;;5.40;0.40;;;;;;;17.93;44.81;94315.25;10449292;28;20253;-81
2021/05/18 13:46:38;;;;;;;4.53;0.50;;;;;;;17.91;46.64;94331.06;10448752;28;20033;-83
2021/05/18 13:51:39;;;;;;;1.17;0.57;;;;;;;18.00;48.58;94327.50;10447924;28;20040;-81
2021/05/18 13:56:41;;;;;;;9.25;0.90;;;;;;;18.03;49.31;94327.66;10429249;28;20034;-77
2021/05/18 14:01:41;;;;;;;2.17;0.35;;;;;;;17.52;49.87;94329.53;10404349;28;20037;-78
2021/05/18 14:06:52;;;;;;;10.53;1.33;;;;;;;17.57;49.44;94335.56;10402896;28;20031;-77
2021/05/18 14:11:52;;;;;;;2.00;0.82;;;;;;;17.80;48.18;94329.84;10410325;28;20026;-77
2021/05/18 14:16:53;;;;;;;5.33;1.57;;;;;;;17.89;46.30;94325.16;10412262;28;20030;-77
2021/05/18 14:21:53;;;;;;;6.17;0.47;;;;;;;17.97;47.52;94339.06;10413471;28;20400;-77
2021/05/18 14:26:54;;;;;;;3.30;0.70;;;;;;;17.92;48.21;94338.13;10411575;28;20048;-77
2021/05/18 14:31:56;;;;;;;1.58;0.32;;;;;;;17.81;47.23;94336.88;10410702;28;20069;-77
2021/05/18 14:36:57;;;;;;;2.03;0.50;;;;;;;17.88;49.59;94341.81;10411000;28;20362;-78
2021/05/18 14:47:22;;;;;;;1.10;0.65;;;;;;;17.91;50.02;94341.16;10411506;28;20033;-77
2021/05/18 14:57:41;;;;;;;2.08;0.30;;;;;;;17.67;46.63;94328.97;10409160;28;20037;-77
2021/05/18 15:02:42;;;;;;;6.70;1.07;;;;;;;17.71;49.40;94324.47;10409179;28;20412;-77
2021/05/18 15:07:43;;;;;;;2.00;0.40;;;;;;;17.62;47.81;94314.75;10410458;28;20021;-77
2021/05/18 15:12:44;;;;;;;0.60;0.40;;;;;;;17.63;46.26;94313.66;10409998;28;20276;-78
2021/05/18 15:17:44;;;;;;;1.75;0.50;;;;;;;17.42;45.68;94319.81;10409473;28;20131;-78
2021/05/18 15:22:45;;;;;;;1.25;0.75;;;;;;;17.38;46.51;94327.81;10409398;28;20029;-77
2021/05/18 15:27:45;;;;;;;11.03;1.17;;;;;;;17.51;47.15;94317.06;10409171;28;20045;-78
2021/05/18 15:32:46;;;;;;;1.63;0.87;;;;;;;17.50;46.26;94327.13;10409057;28;20033;-78
2021/05/18 15:37:46;;;;;;;5.35;0.82;;;;;;;17.47;47.08;94340.56;10407484;28;20030;-78
2021/05/18 15:42:46;;;;;;;3.63;0.43;;;;;;;17.56;43.85;94327.75;10408534;28;20033;-78
2021/05/18 15:47:47;;;;;;;1.80;0.50;;;;;;;17.35;44.19;94322.25;10407551;28;20129;-78
2021/05/18 15:52:47;;;;;;;9.63;0.80;;;;;;;17.38;47.01;94319.66;10406511;28;20033;-78
2021/05/18 15:57:47;;;;;;;4.60;2.00;;;;;;;17.40;47.74;94325.56;10407727;28;20029;-78
2021/05/18 16:02:48;;;;;;;7.03;1.20;;;;;;;17.33;46.59;94346.22;10407499;28;20283;-78
2021/05/18 16:07:55;;;;;;;3.33;0.57;;;;;;;17.04;44.71;94329.53;10407506;28;20033;-78
2021/05/18 16:12:55;;;;;;;3.03;1.10;;;;;;;17.05;44.55;94339.28;10407964;28;20040;-78
2021/05/18 16:17:56;;;;;;;1.23;0.50;;;;;;;17.02;47.22;94322.84;10407398;28;20449;-78
2021/05/18 16:22:56;;;;;;;4.80;1.15;;;;;;;17.08;45.21;94335.91;10407413;28;20044;-78
2021/05/18 16:27:57;;;;;;;8.17;0.83;;;;;;;16.84;47.24;94328.28;10407253;28;20053;-78
2021/05/18 16:32:57;;;;;;;3.75;0.50;;;;;;;16.76;46.35;94326.38;10405595;28;20029;-78
2021/05/18 16:37:58;;;;;;;6.43;0.98;;;;;;;16.93;46.74;94336.44;10406892;28;20041;-78
2021/05/18 16:42:58;;;;;;;7.85;0.68;;;;;;;16.92;49.96;94327.47;10416481;28;20029;-78
2021/05/18 16:47:59;;;;;;;7.20;0.70;;;;;;;16.86;53.75;94336.13;10424091;28;20033;-78
2021/05/18 16:52:59;;;;;;;2.53;0.70;;;;;;;16.75;54.37;94333.72;10438380;28;20276;-78
2021/05/18 16:58:00;;;;;;;2.40;0.80;;;;;;;16.72;52.72;94339.00;10405927;28;20029;-78
2021/05/18 17:03:01;;;;;;;4.70;0.90;;;;;;;16.67;53.49;94337.25;10406572;28;20867;-78
2021/05/18 17:08:05;;;;;;;3.92;0.88;;;;;;;16.59;56.95;94340.78;10443977;28;20460;-78
2021/05/18 17:13:06;;;;;;;3.10;0.55;;;;;;;16.32;57.29;94348.13;10442464;28;20446;-77
2021/05/18 17:18:06;;;;;;;2.08;0.85;;;;;;;16.25;55.70;94345.09;10443535;28;20405;-77
2021/05/18 17:23:08;;;;;;;2.47;0.93;;;;;;;16.20;57.73;94356.91;10444035;28;20068;-77
2021/05/18 17:28:08;;;;;;;5.50;1.02;;;;;;;16.04;59.42;94353.03;10444090;28;20448;-78
2021/05/18 17:33:11;;;;;;;2.47;1.20;;;;;;;16.00;58.75;94354.78;10439109;28;20029;-78
2021/05/18 17:38:14;;;;;;;2.60;0.90;;;;;;;15.87;59.93;94365.44;10443545;28;20291;-77
2021/05/18 17:43:14;;;;;;;6.45;1.23;;;;;;;15.61;64.96;94375.41;10444914;28;20025;-78
2021/05/18 17:48:15;;;;;;;6.32;2.53;;;;;;;15.44;65.66;94376.91;10451987;28;20017;-78
2021/05/18 17:53:15;;;;;;;34.70;9.88;;;;;;;15.27;67.88;94377.66;10451676;28;20017;-77
2021/05/18 17:58:16;;;;;;;20.73;5.15;;;;;;;15.06;69.01;94373.88;10449660;28;20028;-78
2021/05/18 18:03:18;;;;;;;24.95;5.20;;;;;;;14.78;74.66;94382.94;10451310;28;20074;-78
2021/05/18 18:08:22;;;;;;;24.73;10.68;;;;;;;14.58;81.54;94375.28;10451152;28;20540;-77
2021/05/18 18:13:22;;;;;;;7.65;2.40;;;;;;;14.46;82.83;94386.66;10447656;28;20102;-78
2021/05/18 18:18:22;;;;;;;5.18;1.95;;;;;;;14.25;86.71;94391.75;10450952;28;20075;-77
2021/05/18 18:23:23;;;;;;;3.40;2.00;;;;;;;14.21;86.46;94396.94;10450390;28;20037;-78
2021/05/18 18:28:23;;;;;;;5.35;2.60;;;;;;;14.06;92.14;94408.09;10448154;28;20029;-78
2021/05/18 18:33:24;;;;;;;8.48;4.22;;;;;;;13.84;91.84;94413.13;10449884;28;20091;-78
2021/05/18 18:38:24;;;;;;;5.70;3.60;;;;;;;13.79;90.50;94412.44;10451199;28;20029;-78
2021/05/18 18:43:26;;;;;;;6.60;2.50;;;;;;;13.57;92.55;94418.53;10452649;28;20029;-78
2021/05/18 18:48:26;;;;;;;6.40;3.25;;;;;;;13.45;93.96;94425.22;10439487;28;20036;-80
2021/05/18 18:58:46;;;;;;;4.85;2.90;;;;;;;13.44;90.14;94420.13;10448074;28;20483;-78
2021/05/18 19:03:59;;;;;;;8.02;2.10;;;;;;;13.49;89.67;94425.41;10450409;28;20104;-77
2021/05/18 19:14:17;;;;;;;3.58;1.17;;;;;;;13.43;84.86;94437.41;10437009;28;20061;-77
2021/05/18 19:19:18;;;;;;;2.97;0.75;;;;;;;13.48;81.12;94446.22;10443922;28;20453;-77
2021/05/18 19:24:19;;;;;;;2.90;0.60;;;;;;;13.48;83.75;94450.84;10427718;28;20041;-78
2021/05/18 19:29:19;;;;;;;2.20;0.90;;;;;;;13.38;82.40;94468.00;10413111;28;20295;-77
2021/05/18 19:34:23;;;;;;;2.90;0.77;;;;;;;13.43;83.37;94472.50;10421844;28;20025;-77
2021/05/18 19:44:58;;;;;;;4.53;0.90;;;;;;;13.40;84.00;94478.50;10449612;28;20029;-78
2021/05/18 19:50:11;;;;;;;4.50;0.77;;;;;;;13.38;83.90;94472.59;10450028;28;20029;-77
2021/05/18 19:55:15;;;;;;;1.40;0.90;;;;;;;13.28;88.50;94474.34;10449638;28;20040;-77
2021/05/18 20:21:33;;;;;;;2.20;1.47;;;;;;;12.79;94.54;94478.38;10449028;28;20039;-77
2021/05/18 20:26:34;;;;;;;2.00;1.17;;;;;;;12.77;90.98;94484.06;10447210;28;20037;-78
2021/05/18 20:31:35;;;;;;;2.03;1.23;;;;;;;12.82;92.98;94483.19;10448500;28;20036;-77
2021/05/18 20:41:36;;;;;;;5.53;1.10;;;;;;;12.61;93.90;94482.69;10448656;28;20029;-77
2021/05/18 20:46:37;;;;;;;5.07;1.15;;;;;;;12.61;94.15;94497.00;10447612;28;20024;-77
2021/05/18 20:51:40;;;;;;;6.00;1.50;;;;;;;12.62;96.27;94493.16;10439637;28;20041;-77
2021/05/18 20:56:41;;;;;;;2.45;1.23;;;;;;;12.54;96.43;94483.03;10409920;28;20396;-77
2021/05/18 21:01:41;;;;;;;3.33;1.35;;;;;;;12.65;94.61;94492.59;10404888;28;20025;-77
2021/05/18 21:06:49;;;;;;;7.10;2.83;;;;;;;12.57;99.54;94505.94;10404100;28;20049;-77
2021/05/18 21:12:07;;;;;;;4.03;1.63;;;;;;;12.56;99.24;94507.84;10426925;28;20033;-77
2021/05/18 21:17:07;;;;;;;3.05;1.52;;;;;;;12.54;100.00;94509.22;10404844;28;20026;-77
2021/05/18 21:22:08;;;;;;;4.27;1.53;;;;;;;12.47;100.00;94515.78;10404694;28;20029;-76
2021/05/18 21:27:09;;;;;;;1.58;1.10;;;;;;;12.45;100.00;94512.56;10405444;28;20128;-77
2021/05/18 21:32:09;;;;;;;3.08;1.00;;;;;;;12.51;100.00;94520.59;10403819;28;20034;-77
2021/05/18 21:37:10;;;;;;;10.23;1.40;;;;;;;12.43;100.00;94524.72;10404807;28;20037;-77
2021/05/18 21:42:10;;;;;;;2.83;1.35;;;;;;;12.33;100.00;94516.78;10405574;28;20279;-77
2021/05/18 21:47:11;;;;;;;2.60;1.10;;;;;;;12.17;100.00;94516.16;10404733;28;20036;-77
2021/05/18 21:52:12;;;;;;;4.13;1.10;;;;;;;12.04;100.00;94517.66;10403720;28;20022;-77
2021/05/18 21:57:12;;;;;;;4.70;1.35;;;;;;;11.68;100.00;94512.63;10405162;28;20288;-77
2021/05/18 22:02:12;;;;;;;9.07;1.50;;;;;;;11.49;100.00;94521.44;10405167;28;20030;-76
2021/05/18 22:07:13;;;;;;;2.20;1.33;;;;;;;11.35;100.00;94523.97;10414128;28;20493;-77
2021/05/18 22:12:24;;;;;;;5.05;2.30;;;;;;;11.28;100.00;94536.97;10431124;28;20393;-76
2021/05/18 22:27:58;;;;;;;7.05;2.38;;;;;;;10.99;100.00;94542.31;10445329;28;20368;-76
2021/05/18 22:32:59;;;;;;;8.90;1.90;;;;;;;11.01;100.00;94538.25;10452795;28;20025;-76
2021/05/18 22:37:59;;;;;;;4.25;2.08;;;;;;;11.06;100.00;94550.84;10452408;28;20298;-76
2021/05/18 22:42:59;;;;;;;3.10;1.70;;;;;;;10.97;100.00;94539.91;10452980;28;20131;-77
2021/05/18 22:48:00;;;;;;;3.07;1.53;;;;;;;10.86;100.00;94539.16;10453346;28;20271;-78
2021/05/18 22:53:01;;;;;;;3.42;2.13;;;;;;;10.82;100.00;94534.63;10452489;28;20033;-77
2021/05/18 22:58:02;;;;;;;4.32;1.88;;;;;;;10.86;100.00;94543.75;10451902;28;20028;-77
2021/05/18 23:03:03;;;;;;;8.20;1.60;;;;;;;10.57;100.00;94531.00;10452813;28;20036;-77
2021/05/18 23:08:04;;;;;;;4.28;1.08;;;;;;;10.41;100.00;94539.16;10450388;28;20055;-77
2021/05/18 23:13:08;;;;;;;7.50;1.05;;;;;;;10.54;100.00;94536.94;10450648;28;20029;-77
2021/05/18 23:18:08;;;;;;;6.00;1.25;;;;;;;10.49;100.00;94543.13;10461426;28;20498;-77
2021/05/18 23:23:08;;;;;;;6.20;2.30;;;;;;;10.37;100.00;94545.38;10450980;28;20107;-76
2021/05/18 23:28:09;;;;;;;3.97;1.23;;;;;;;10.28;100.00;94550.47;10450068;28;20271;-77
2021/05/18 23:33:09;;;;;;;2.50;1.07;;;;;;;10.26;100.00;94547.25;10451813;28;20805;-77
2021/05/18 23:38:09;;;;;;;2.37;1.50;;;;;;;10.21;100.00;94540.03;10450841;28;20787;-77
2021/05/18 23:43:10;;;;;;;4.57;1.70;;;;;;;10.03;100.00;94552.19;10449851;28;20082;-77
2021/05/18 23:48:10;;;;;;;8.73;1.30;;;;;;;9.90;100.00;94552.75;10450974;28;20028;-76
2021/05/18 23:53:10;;;;;;;4.75;1.85;;;;;;;9.79;100.00;94557.34;10450459;28;20351;-76
2021/05/18 23:58:11;;;;;;;2.80;1.47;;;;;;;9.66;100.00;94561.41;10449670;28;20033;-77
